Time;durP1;ratioP1;P1;durP2;ratioP2;P2;SDS_P1;SDS_P2;PMS_P1;PMS_P2;Temp;Humidity;BMP_temperature;BMP_pressure;BME280_temperature;BME280_humidity;BME280_pressure;Samples;Min_cycle;Max_cycle;Signal;HPM_P1;HPM_P2
2021/12/01 00:01:09;;;;;;;15.82;8.00;;;;;;;1.53;75.03;100587.91;5071938;28;20067;-72
2021/12/01 00:03:37;;;;;;;13.40;7.55;;;;;;;1.50;75.54;100588.34;5072228;28;20372;-72
2021/12/01 00:06:05;;;;;;;13.77;7.57;;;;;;;1.48;76.12;100599.34;5072176;28;20045;-72
2021/12/01 00:08:34;;;;;;;10.80;7.38;;;;;;;1.45;75.48;100592.53;5054883;28;20052;-72
2021/12/01 00:11:02;;;;;;;12.75;7.28;;;;;;;1.49;76.06;100603.69;5071933;28;20381;-73
2021/12/01 00:13:32;;;;;;;13.20;7.10;;;;;;;1.46;75.92;100587.94;5072098;28;20041;-74
2021/12/01 00:16:01;;;;;;;12.02;6.85;;;;;;;1.55;76.04;100589.34;5071936;28;20036;-73
2021/12/01 00:18:30;;;;;;;12.68;6.65;;;;;;;1.58;75.29;100580.81;5072085;28;20056;-73
2021/12/01 00:20:58;;;;;;;10.75;6.57;;;;;;;1.71;75.22;100577.16;5071938;28;20496;-73
2021/12/01 00:23:26;;;;;;;16.08;8.07;;;;;;;1.70;75.44;100585.47;5065235;28;20033;-73
2021/12/01 00:25:55;;;;;;;13.90;7.70;;;;;;;1.69;75.20;100592.75;5068667;28;20067;-73
2021/12/01 00:28:24;;;;;;;11.27;7.05;;;;;;;1.69;74.89;100592.75;5053961;28;20044;-72
2021/12/01 00:30:53;;;;;;;9.98;6.15;;;;;;;1.82;74.17;100586.44;5071691;28;20522;-73
2021/12/01 00:33:23;;;;;;;10.05;6.55;;;;;;;1.81;74.09;100582.06;5071944;28;20045;-73
2021/12/01 00:35:53;;;;;;;14.35;7.20;;;;;;;1.82;73.66;100582.88;5053296;28;20446;-73
2021/12/01 00:38:22;;;;;;;15.38;7.10;;;;;;;1.80;72.97;100577.72;5071191;28;20095;-73
2021/12/01 00:40:51;;;;;;;11.63;7.20;;;;;;;1.84;73.88;100584.31;5071835;28;20055;-72
2021/12/01 00:43:19;;;;;;;13.98;7.82;;;;;;;1.83;74.15;100582.69;5058046;28;20506;-73
2021/12/01 00:45:53;;;;;;;11.88;6.72;;;;;;;1.81;73.83;100592.03;5071736;28;20044;-73
2021/12/01 00:48:22;;;;;;;12.57;6.72;;;;;;;1.85;73.69;100591.38;5071677;28;20052;-73
2021/12/01 00:50:52;;;;;;;11.25;6.90;;;;;;;1.91;73.12;100588.84;5053656;28;20056;-73
2021/12/01 00:53:20;;;;;;;14.77;7.18;;;;;;;1.71;74.14;100584.44;5071592;28;20036;-73
2021/12/01 00:55:48;;;;;;;9.07;6.97;;;;;;;1.60;74.39;100578.72;5053991;28;20045;-73
2021/12/01 00:58:16;;;;;;;10.95;6.68;;;;;;;1.59;75.09;100582.47;5053667;28;20040;-73
2021/12/01 01:00:48;;;;;;;10.75;6.32;;;;;;;1.66;75.00;100582.38;5071146;28;20049;-73
2021/12/01 01:03:18;;;;;;;11.27;6.97;;;;;;;1.68;74.48;100580.31;5071673;28;20045;-73
2021/12/01 01:05:48;;;;;;;11.05;6.80;;;;;;;1.68;74.62;100563.28;5071503;28;20396;-73
2021/12/01 01:08:17;;;;;;;12.13;6.68;;;;;;;1.76;73.55;100578.38;5071288;28;20491;-73
2021/12/01 01:11:08;;;;;;;10.48;6.57;;;;;;;1.69;74.66;100578.44;5071477;28;20036;-73
2021/12/01 01:16:23;;;;;;;12.57;7.13;;;;;;;1.60;74.27;100572.47;5071642;28;20052;-73
2021/12/01 01:18:54;;;;;;;14.00;7.20;;;;;;;1.47;74.76;100565.34;5071474;28;20044;-73
2021/12/01 01:21:23;;;;;;;12.32;7.05;;;;;;;1.42;74.96;100565.16;5071103;28;20041;-72
2021/12/01 01:23:52;;;;;;;11.88;7.07;;;;;;;1.33;75.62;100567.31;5057377;28;20053;-73
2021/12/01 01:26:21;;;;;;;12.30;7.20;;;;;;;1.40;75.21;100568.06;5057506;28;20044;-72
2021/12/01 01:28:49;;;;;;;11.88;7.05;;;;;;;1.46;75.17;100563.66;5071197;28;20052;-73
2021/12/01 01:31:19;;;;;;;11.15;7.53;;;;;;;1.45;75.37;100570.94;5069767;28;20040;-72
2021/12/01 01:33:49;;;;;;;12.38;7.45;;;;;;;1.43;75.97;100573.03;5070085;28;20047;-72
2021/12/01 01:36:17;;;;;;;12.48;7.45;;;;;;;1.41;76.77;100558.94;5069784;28;20048;-72
2021/12/01 01:38:45;;;;;;;13.93;7.80;;;;;;;1.34;75.95;100563.56;5070138;28;20048;-72
2021/12/01 01:41:14;;;;;;;14.35;7.75;;;;;;;1.41;75.40;100568.91;5069769;28;20391;-72
2021/12/01 01:43:45;;;;;;;12.07;7.88;;;;;;;1.29;75.46;100568.78;5070004;28;20475;-72
2021/12/01 01:46:14;;;;;;;13.23;7.82;;;;;;;1.28;76.11;100559.84;5069627;28;20064;-73
2021/12/01 01:48:55;;;;;;;12.48;7.20;;;;;;;1.23;76.29;100562.41;5073078;28;20403;-73
2021/12/01 01:51:26;;;;;;;16.67;7.50;;;;;;;1.38;75.62;100558.56;5071567;28;20037;-73
2021/12/01 01:53:56;;;;;;;12.73;7.15;;;;;;;1.22;76.13;100555.34;5073445;28;20136;-73
2021/12/01 01:56:25;;;;;;;11.13;6.68;;;;;;;1.27;75.76;100552.81;5073589;28;20049;-73
2021/12/01 01:58:54;;;;;;;13.60;7.40;;;;;;;1.41;74.42;100550.03;5070743;28;20044;-73
2021/12/01 02:01:44;;;;;;;10.15;7.43;;;;;;;1.42;74.06;100549.00;5073492;28;20392;-72
2021/12/01 02:04:18;;;;;;;13.25;7.60;;;;;;;1.43;73.91;100546.03;5072804;28;20052;-72
2021/12/01 02:06:48;;;;;;;12.40;7.55;;;;;;;1.39;74.59;100550.25;5073010;28;20048;-72
2021/12/01 02:09:20;;;;;;;10.82;7.13;;;;;;;1.42;74.82;100549.00;5073057;28;20040;-72
2021/12/01 02:11:49;;;;;;;13.40;8.35;;;;;;;1.42;74.15;100555.19;5073135;28;20055;-73
2021/12/01 02:14:17;;;;;;;10.20;6.88;;;;;;;1.34;75.63;100556.31;5061672;28;20055;-73
2021/12/01 02:16:45;;;;;;;9.93;7.47;;;;;;;1.31;75.21;100545.09;5073082;28;20412;-73
2021/12/01 02:19:14;;;;;;;12.90;7.40;;;;;;;1.34;74.75;100550.06;5056063;28;20408;-73
2021/12/01 02:21:42;;;;;;;11.98;6.93;;;;;;;1.33;74.54;100546.53;5074275;28;20373;-73
2021/12/01 02:24:13;;;;;;;12.02;7.93;;;;;;;1.25;75.31;100560.31;5061298;28;20089;-73
2021/12/01 02:26:45;;;;;;;12.35;7.63;;;;;;;1.25;74.82;100549.53;5069809;28;20044;-72
2021/12/01 02:29:18;;;;;;;12.30;7.35;;;;;;;1.18;75.82;100544.16;5072517;28;20043;-72
2021/12/01 02:31:47;;;;;;;12.68;7.68;;;;;;;1.25;75.82;100538.72;5072289;28;20059;-72
2021/12/01 02:34:18;;;;;;;11.40;7.30;;;;;;;1.24;75.58;100536.25;5073639;28;20041;-72
2021/12/01 02:36:54;;;;;;;12.73;7.38;;;;;;;1.25;76.38;100541.44;5074043;28;20036;-72
2021/12/01 02:39:23;;;;;;;13.05;7.60;;;;;;;1.22;76.15;100539.16;5073818;28;20395;-72
2021/12/01 02:41:57;;;;;;;16.13;8.15;;;;;;;1.16;76.86;100529.25;5056228;28;20392;-73
2021/12/01 02:44:26;;;;;;;;;;;;;;;1.06;77.04;100527.03;5072684;28;20040;-73
2021/12/01 02:46:54;;;;;;;12.80;7.35;;;;;;;1.00;77.59;100525.22;5073524;28;19928;-72
2021/12/01 02:49:24;;;;;;;13.88;8.18;;;;;;;0.90;78.34;100528.38;5055989;28;20045;-72
2021/12/01 02:51:54;;;;;;;12.38;7.30;;;;;;;0.78;79.10;100537.16;5073559;28;20052;-73
2021/12/01 02:54:23;;;;;;;11.82;7.28;;;;;;;0.73;79.69;100528.09;5073683;28;20041;-72
2021/12/01 02:56:54;;;;;;;10.88;7.45;;;;;;;0.76;79.47;100530.31;5073413;28;20055;-73
2021/12/01 02:59:24;;;;;;;15.60;7.68;;;;;;;0.69;79.99;100521.47;5072533;28;20040;-72
2021/12/01 03:01:54;;;;;;;10.85;7.20;;;;;;;0.66;80.35;100525.41;5073295;28;20166;-72
2021/12/01 03:04:23;;;;;;;13.25;7.63;;;;;;;0.69;80.37;100535.78;5073220;28;20049;-73
2021/12/01 03:06:52;;;;;;;7.65;6.40;;;;;;;0.66;80.97;100533.50;5072976;28;20044;-72
2021/12/01 03:09:21;;;;;;;8.40;5.63;;;;;;;0.66;80.04;100542.41;5073337;28;20049;-73
2021/12/01 03:11:50;;;;;;;8.32;5.93;;;;;;;0.69;80.39;100545.72;5073158;28;20055;-73
2021/12/01 03:14:19;;;;;;;10.77;5.82;;;;;;;0.61;80.83;100541.38;5073187;28;20032;-73
2021/12/01 03:16:50;;;;;;;10.45;5.57;;;;;;;0.59;81.33;100535.41;5073226;28;20048;-72
2021/12/01 03:19:18;;;;;;;7.93;5.18;;;;;;;0.54;81.71;100527.97;5073127;28;20484;-73
2021/12/01 03:21:46;;;;;;;6.88;5.00;;;;;;;0.57;81.44;100537.47;5072220;28;20158;-72
2021/12/01 03:24:14;;;;;;;10.90;5.45;;;;;;;0.55;81.61;100531.47;5072509;28;20044;-72
2021/12/01 03:26:42;;;;;;;8.25;5.28;;;;;;;0.46;82.70;100539.81;5072876;28;20075;-72
2021/12/01 03:29:14;;;;;;;7.78;5.28;;;;;;;0.53;82.33;100535.22;5072721;28;20043;-72
2021/12/01 03:31:42;;;;;;;8.88;5.90;;;;;;;0.49;82.48;100538.56;5072314;28;20115;-73
2021/12/01 03:34:10;;;;;;;11.23;6.05;;;;;;;0.57;82.12;100532.06;5060151;28;20407;-73
2021/12/01 03:36:39;;;;;;;10.40;6.60;;;;;;;0.58;81.93;100544.53;5072722;28;20043;-73
2021/12/01 03:39:07;;;;;;;11.93;6.40;;;;;;;0.58;82.39;100531.06;5072802;28;20047;-73
2021/12/01 03:41:35;;;;;;;12.32;6.55;;;;;;;0.58;82.42;100525.66;5072150;28;20395;-73
2021/12/01 03:44:03;;;;;;;10.80;6.00;;;;;;;0.69;81.23;100532.25;5055128;28;20044;-73
2021/12/01 03:46:31;;;;;;;7.90;5.47;;;;;;;0.65;81.27;100531.84;5072347;28;20067;-73
2021/12/01 03:48:59;;;;;;;11.15;5.40;;;;;;;0.63;81.07;100526.66;5071917;28;20056;-73
2021/12/01 03:51:27;;;;;;;7.25;4.93;;;;;;;0.61;81.15;100534.16;5069244;28;20041;-73
2021/12/01 03:53:55;;;;;;;6.90;4.68;;;;;;;0.57;82.03;100530.22;5061923;28;20047;-73
2021/12/01 03:56:23;;;;;;;7.65;4.60;;;;;;;0.53;81.93;100524.44;5072322;28;20456;-73
2021/12/01 03:58:53;;;;;;;10.73;5.32;;;;;;;0.60;82.09;100526.28;5072416;28;20040;-73
2021/12/01 04:01:21;;;;;;;8.65;5.97;;;;;;;0.57;82.91;100527.53;5072396;28;20041;-73
2021/12/01 04:03:49;;;;;;;10.30;5.53;;;;;;;0.50;83.15;100519.47;5054507;28;20041;-73
2021/12/01 04:06:17;;;;;;;9.10;5.63;;;;;;;0.39;83.79;100526.34;5072112;28;20048;-73
2021/12/01 04:08:45;;;;;;;9.65;5.93;;;;;;;0.51;83.12;100529.22;5071855;28;20044;-73
2021/12/01 04:11:13;;;;;;;12.13;6.82;;;;;;;0.62;82.18;100527.72;5071028;28;20048;-73
2021/12/01 04:13:41;;;;;;;9.98;6.63;;;;;;;0.64;83.06;100536.41;5071987;28;20400;-73
2021/12/01 04:16:09;;;;;;;10.30;6.45;;;;;;;0.59;84.06;100536.22;5054396;28;20051;-73
2021/12/01 04:18:39;;;;;;;11.55;6.93;;;;;;;0.67;81.25;100540.53;5072164;28;20044;-73
2021/12/01 04:21:06;;;;;;;10.23;5.95;;;;;;;0.64;82.15;100535.59;5071958;28;20048;-73
2021/12/01 04:23:35;;;;;;;10.27;6.38;;;;;;;0.72;81.63;100540.72;5070839;28;20059;-73
2021/12/01 04:26:03;;;;;;;11.35;6.30;;;;;;;0.58;82.35;100536.44;5071777;28;20049;-73
2021/12/01 04:28:31;;;;;;;11.95;6.45;;;;;;;0.37;84.12;100539.22;5071867;28;20052;-73
2021/12/01 04:30:59;;;;;;;11.15;6.40;;;;;;;0.33;84.45;100542.53;5071814;28;20040;-73
2021/12/01 04:33:27;;;;;;;11.43;5.88;;;;;;;0.35;84.48;100541.28;5071805;28;20048;-73
2021/12/01 04:35:56;;;;;;;11.52;7.22;;;;;;;0.51;83.46;100541.84;5054323;28;20080;-73
2021/12/01 04:38:24;;;;;;;9.48;6.25;;;;;;;0.37;84.48;100546.47;5071787;28;20045;-73
2021/12/01 04:40:51;;;;;;;9.98;6.55;;;;;;;0.25;85.03;100541.72;5071866;28;20052;-73
2021/12/01 04:43:19;;;;;;;11.35;6.80;;;;;;;0.31;84.95;100550.00;5071655;28;20395;-73
2021/12/01 04:45:52;;;;;;;9.52;6.32;;;;;;;0.35;84.44;100543.16;5071685;28;20051;-73
2021/12/01 04:48:20;;;;;;;7.70;5.95;;;;;;;0.27;85.29;100536.13;5071741;28;20396;-73
2021/12/01 04:50:48;;;;;;;13.05;6.53;;;;;;;0.15;86.14;100541.38;5054099;28;20036;-73
2021/12/01 04:53:16;;;;;;;10.25;6.68;;;;;;;0.36;84.91;100542.13;5071585;28;20395;-73
2021/12/01 04:55:45;;;;;;;11.20;6.20;;;;;;;0.34;84.19;100541.50;5071797;28;20055;-73
2021/12/01 04:58:13;;;;;;;7.55;5.80;;;;;;;0.15;85.54;100541.38;5071519;28;20055;-73
2021/12/01 05:00:41;;;;;;;9.48;6.00;;;;;;;-0.02;86.25;100551.75;5053678;28;20565;-73
2021/12/01 05:03:09;;;;;;;9.85;6.65;;;;;;;0.23;84.11;100540.28;5071274;28;20049;-73
2021/12/01 05:05:51;;;;;;;11.98;6.53;;;;;;;0.27;83.76;100549.59;5071474;28;20044;-73
2021/12/01 05:08:20;;;;;;;8.35;5.43;;;;;;;0.35;82.92;100548.53;5071391;28;20049;-73
2021/12/01 05:10:48;;;;;;;11.63;5.95;;;;;;;0.31;83.02;100555.38;5053804;28;20040;-73
2021/12/01 05:13:17;;;;;;;11.10;6.43;;;;;;;0.26;84.38;100556.84;5071512;28;20407;-73
2021/12/01 05:15:46;;;;;;;10.40;7.10;;;;;;;0.36;83.34;100551.03;5046405;28;20045;-74
2021/12/01 05:18:14;;;;;;;13.07;7.38;;;;;;;0.40;82.36;100559.50;5064872;28;20040;-73
2021/12/01 05:20:42;;;;;;;13.25;7.03;;;;;;;0.33;82.94;100581.06;5071421;28;20051;-73
2021/12/01 05:23:12;;;;;;;9.43;6.90;;;;;;;0.13;84.65;100567.66;5073716;28;20048;-73
2021/12/01 05:25:42;;;;;;;9.50;6.90;;;;;;;0.05;85.44;100551.75;5059213;28;20040;-73
2021/12/01 05:28:11;;;;;;;9.43;6.30;;;;;;;0.13;84.65;100560.41;5062678;28;20072;-73
2021/12/01 05:30:39;;;;;;;15.70;8.20;;;;;;;-0.08;85.40;100557.97;5075032;28;20055;-73
2021/12/01 05:33:11;;;;;;;15.35;7.43;;;;;;;-0.31;87.26;100553.84;5075132;28;20055;-73
2021/12/01 05:35:43;;;;;;;13.27;7.25;;;;;;;-0.16;86.85;100561.69;5075082;28;20044;-73
2021/12/01 05:38:12;;;;;;;15.05;7.15;;;;;;;-0.18;86.29;100564.59;5058480;28;20515;-73
2021/12/01 05:40:40;;;;;;;11.40;7.65;;;;;;;-0.31;86.93;100554.69;5074626;28;20040;-73
2021/12/01 05:43:08;;;;;;;16.52;7.72;;;;;;;-0.41;87.66;100560.47;5080731;28;20040;-73
2021/12/01 05:45:36;;;;;;;16.00;6.90;;;;;;;-0.40;87.77;100566.66;5075493;28;20400;-73
2021/12/01 05:48:04;;;;;;;14.80;8.63;;;;;;;-0.36;88.05;100567.06;5056742;28;20044;-73
2021/12/01 05:50:32;;;;;;;15.52;8.07;;;;;;;-0.38;88.32;100575.38;5071504;28;20334;-73
2021/12/01 05:53:00;;;;;;;13.68;8.98;;;;;;;-0.49;88.94;100562.56;5053490;28;20392;-73
2021/12/01 05:55:29;;;;;;;12.45;8.25;;;;;;;-0.52;89.75;100574.53;5074245;28;20395;-73
2021/12/01 05:57:57;;;;;;;14.82;7.93;;;;;;;-0.30;88.65;100583.22;5067104;28;20037;-73
2021/12/01 06:00:25;;;;;;;14.55;7.57;;;;;;;-0.30;88.40;100580.53;5068786;28;20048;-74
2021/12/01 06:02:53;;;;;;;15.23;7.97;;;;;;;-0.34;88.68;100576.59;5061937;28;20052;-73
2021/12/01 06:05:25;;;;;;;14.90;8.40;;;;;;;-0.47;89.59;100574.75;5065017;28;20039;-74
2021/12/01 06:07:52;;;;;;;13.63;7.55;;;;;;;-0.55;90.54;100562.34;5069216;28;20064;-73
2021/12/01 06:10:20;;;;;;;12.75;7.93;;;;;;;-0.56;90.86;100573.28;5054237;28;20052;-73
2021/12/01 06:12:49;;;;;;;12.68;7.35;;;;;;;-0.52;89.85;100565.63;5053906;28;20052;-72
2021/12/01 06:15:17;;;;;;;11.90;6.47;;;;;;;-0.32;87.95;100571.00;5054274;28;20492;-73
2021/12/01 06:17:46;;;;;;;12.88;7.45;;;;;;;-0.23;87.02;100567.09;5058116;28;20047;-73
2021/12/01 06:20:14;;;;;;;13.43;7.05;;;;;;;-0.12;86.21;100573.69;5061823;28;20053;-73
2021/12/01 06:22:44;;;;;;;15.90;7.85;;;;;;;0.10;87.65;100578.84;5053713;28;20048;-76
2021/12/01 06:25:12;;;;;;;15.52;6.97;;;;;;;0.05;86.09;100578.66;5053281;28;20060;-76
2021/12/01 06:27:42;;;;;;;12.55;7.18;;;;;;;0.04;85.79;100571.63;5053640;28;20041;-75
2021/12/01 06:30:11;;;;;;;16.25;8.43;;;;;;;0.11;85.69;100593.94;5053533;28;20049;-75
2021/12/01 06:32:39;;;;;;;20.13;8.65;;;;;;;0.09;85.53;100596.00;5053248;28;20037;-75
2021/12/01 06:35:08;;;;;;;13.98;7.55;;;;;;;-0.13;86.38;100590.88;5052729;28;20048;-75
2021/12/01 06:37:37;;;;;;;13.85;7.70;;;;;;;-0.19;86.77;100594.41;5053514;28;20047;-75
2021/12/01 06:40:07;;;;;;;11.00;6.85;;;;;;;-0.13;87.22;100593.56;5053773;28;20037;-75
2021/12/01 06:42:35;;;;;;;13.30;7.32;;;;;;;0.19;87.25;100585.63;5052278;28;20056;-75
2021/12/01 06:45:05;;;;;;;14.32;7.72;;;;;;;0.15;85.65;100600.56;5053592;28;20053;-73
2021/12/01 06:47:33;;;;;;;13.60;7.68;;;;;;;0.06;86.81;100591.06;5053704;28;20048;-74
2021/12/01 06:50:03;;;;;;;13.38;7.25;;;;;;;-0.12;87.61;100589.84;5053562;28;20399;-74
2021/12/01 06:52:32;;;;;;;11.05;7.25;;;;;;;-0.23;88.06;100594.00;5041638;28;20050;-74
2021/12/01 06:55:02;;;;;;;19.23;8.48;;;;;;;-0.23;87.18;100593.16;5051883;28;20060;-73
2021/12/01 06:57:30;;;;;;;13.02;7.68;;;;;;;-0.17;87.37;100605.78;5053567;28;20041;-74
2021/12/01 06:59:59;;;;;;;12.30;7.50;;;;;;;-0.16;88.17;100602.03;5053335;28;20049;-74
2021/12/01 07:02:27;;;;;;;14.15;7.78;;;;;;;0.05;86.89;100600.16;5053464;28;20484;-75
2021/12/01 07:04:55;;;;;;;10.95;7.05;;;;;;;-0.01;87.99;100604.50;5053105;28;20044;-72
2021/12/01 07:07:23;;;;;;;16.20;7.07;;;;;;;-0.01;88.59;100597.28;5056885;28;20036;-75
2021/12/01 07:09:51;;;;;;;11.25;7.13;;;;;;;0.22;86.77;100600.53;5055455;28;20563;-74
2021/12/01 07:12:19;;;;;;;13.00;6.82;;;;;;;0.22;86.81;100597.84;5070200;28;20045;-73
2021/12/01 07:14:47;;;;;;;12.27;7.43;;;;;;;0.45;86.42;100608.16;5062488;28;20396;-73
2021/12/01 07:17:15;;;;;;;20.80;7.15;;;;;;;0.60;85.08;100597.13;5072901;28;20506;-73
2021/12/01 07:19:43;;;;;;;12.23;7.22;;;;;;;0.61;84.73;100592.56;5073161;28;20044;-73
2021/12/01 07:22:11;;;;;;;11.32;6.55;;;;;;;0.71;84.84;100598.31;5072853;28;20040;-74
2021/12/01 07:24:39;;;;;;;11.65;7.40;;;;;;;0.75;84.66;100612.19;5054741;28;20526;-73
2021/12/01 07:27:14;;;;;;;20.58;8.18;;;;;;;0.69;84.79;100616.59;5072797;28;20044;-73
2021/12/01 07:29:43;;;;;;;15.70;7.55;;;;;;;0.65;85.13;100609.97;5072862;28;20036;-73
2021/12/01 07:32:11;;;;;;;16.80;9.18;;;;;;;0.63;86.06;100606.66;5072813;28;20813;-74
2021/12/01 07:34:42;;;;;;;12.73;8.82;;;;;;;0.70;85.24;100604.75;5054970;28;20044;-73
2021/12/01 07:37:16;;;;;;;13.02;7.75;;;;;;;0.79;85.40;100595.38;5072734;28;20040;-73
2021/12/01 07:39:45;;;;;;;15.75;8.65;;;;;;;0.88;84.63;100601.34;5054925;28;20040;-73
2021/12/01 07:42:15;;;;;;;16.92;8.13;;;;;;;1.11;84.42;100607.28;5072578;28;20052;-73
2021/12/01 07:44:43;;;;;;;20.88;8.15;;;;;;;1.33;83.84;100611.25;5072613;28;20055;-73
2021/12/01 07:47:11;;;;;;;17.13;7.90;;;;;;;1.43;82.38;100616.16;5072437;28;20051;-73
2021/12/01 07:49:40;;;;;;;20.85;7.97;;;;;;;1.33;82.62;100616.66;5072328;28;20407;-73
2021/12/01 07:52:09;;;;;;;19.50;10.18;;;;;;;1.45;82.36;100615.97;5054745;28;20051;-73
2021/12/01 07:54:39;;;;;;;23.38;11.65;;;;;;;1.52;82.78;100613.22;5054462;28;20044;-73
2021/12/01 07:57:08;;;;;;;13.85;8.38;;;;;;;1.51;81.54;100614.28;5072395;28;20480;-73
2021/12/01 07:59:36;;;;;;;19.00;9.88;;;;;;;1.70;81.60;100609.75;5071033;28;20060;-74
2021/12/01 08:02:04;;;;;;;13.57;8.43;;;;;;;1.92;80.17;100626.41;5072362;28;20045;-73
2021/12/01 08:04:32;;;;;;;16.65;8.57;;;;;;;1.97;79.33;100621.19;5071982;28;20037;-72
2021/12/01 08:07:01;;;;;;;15.85;8.38;;;;;;;1.99;79.75;100612.84;5071661;28;20526;-73
2021/12/01 08:09:29;;;;;;;13.65;8.10;;;;;;;2.33;78.53;100617.91;5072218;28;20491;-73
2021/12/01 08:11:57;;;;;;;10.30;6.35;;;;;;;2.42;78.06;100617.41;5072029;28;20041;-74
2021/12/01 08:14:25;;;;;;;15.32;7.68;;;;;;;2.63;77.63;100623.41;5071929;28;20044;-73
2021/12/01 08:16:53;;;;;;;13.20;7.53;;;;;;;2.61;76.72;100622.81;5071987;28;20041;-73
2021/12/01 08:19:21;;;;;;;12.50;7.75;;;;;;;2.66;76.42;100622.13;5071897;28;20630;-73
2021/12/01 08:21:50;;;;;;;11.93;7.60;;;;;;;3.00;75.15;100622.53;5072011;28;20045;-74
2021/12/01 08:24:19;;;;;;;10.57;6.75;;;;;;;2.93;74.91;100621.81;5071893;28;20052;-74
2021/12/01 08:26:48;;;;;;;15.20;7.88;;;;;;;3.01;75.15;100635.00;5071598;28;20063;-74
2021/12/01 08:29:17;;;;;;;11.57;7.28;;;;;;;3.09;73.70;100623.06;5054101;28;20043;-74
2021/12/01 08:31:44;;;;;;;13.43;7.70;;;;;;;3.25;73.48;100623.44;5071774;28;20427;-74
2021/12/01 08:34:13;;;;;;;12.50;7.20;;;;;;;3.30;71.80;100631.72;5071646;28;20076;-74
2021/12/01 08:36:41;;;;;;;14.60;7.50;;;;;;;3.35;71.03;100623.72;5059636;28;20049;-74
2021/12/01 08:39:09;;;;;;;15.05;8.15;;;;;;;3.45;71.36;100624.00;5070023;28;20483;-74
2021/12/01 08:41:37;;;;;;;15.23;8.15;;;;;;;3.62;71.97;100618.75;5053663;28;20048;-74
2021/12/01 08:44:05;;;;;;;12.07;7.10;;;;;;;3.53;70.62;100624.72;5071590;28;20059;-74
2021/12/01 08:46:33;;;;;;;10.77;6.78;;;;;;;3.82;69.50;100622.19;5071606;28;20041;-74
2021/12/01 08:49:01;;;;;;;10.45;6.35;;;;;;;4.06;67.76;100622.22;5071657;28;20049;-74
2021/12/01 08:51:30;;;;;;;14.73;6.75;;;;;;;4.48;65.99;100616.63;5071741;28;20056;-74
2021/12/01 08:53:58;;;;;;;8.80;6.40;;;;;;;4.38;67.16;100619.13;5071065;28;20385;-74
2021/12/01 08:56:26;;;;;;;10.52;6.20;;;;;;;4.66;65.67;100625.69;5058159;28;20040;-77
2021/12/01 08:58:54;;;;;;;10.57;6.70;;;;;;;4.60;65.55;100615.78;5075395;28;20049;-73
2021/12/01 09:01:22;;;;;;;9.93;7.00;;;;;;;4.66;65.57;100615.69;5075601;28;20044;-73
2021/12/01 09:03:50;;;;;;;8.13;5.90;;;;;;;5.12;62.94;100612.22;5075379;28;20048;-73
2021/12/01 09:06:18;;;;;;;9.18;6.40;;;;;;;5.15;62.97;100610.91;5056819;28;20045;-73
2021/12/01 09:08:46;;;;;;;8.07;5.65;;;;;;;5.30;61.22;100611.19;5075251;28;20048;-73
2021/12/01 09:11:14;;;;;;;9.13;5.97;;;;;;;5.00;61.43;100598.72;5075572;28;20483;-73
2021/12/01 09:13:41;;;;;;;12.38;7.00;;;;;;;4.98;63.04;100606.25;5074834;28;20110;-73
2021/12/01 09:16:22;;;;;;;11.45;7.15;;;;;;;5.34;61.74;100596.06;5074024;28;20051;-73
2021/12/01 09:18:50;;;;;;;11.02;6.70;;;;;;;5.74;61.08;100596.19;5075106;28;20495;-73
2021/12/01 09:21:18;;;;;;;11.05;6.88;;;;;;;5.60;62.80;100596.50;5068402;28;20050;-74
2021/12/01 09:23:47;;;;;;;10.50;7.10;;;;;;;5.73;61.49;100595.34;5067999;28;20059;-73
2021/12/01 09:26:15;;;;;;;10.77;6.82;;;;;;;5.81;61.02;100582.44;5074180;28;20060;-73
2021/12/01 09:28:43;;;;;;;10.95;6.55;;;;;;;5.98;58.91;100587.84;5074535;28;20044;-74
2021/12/01 09:31:11;;;;;;;10.32;5.70;;;;;;;6.02;59.54;100583.56;5075061;28;20051;-75
2021/12/01 09:33:39;;;;;;;8.80;6.30;;;;;;;5.86;58.46;100587.97;5075043;28;20029;-74
2021/12/01 09:36:07;;;;;;;9.25;6.90;;;;;;;5.95;59.20;100578.31;5075053;28;20044;-75
2021/12/01 09:38:35;;;;;;;7.07;5.72;;;;;;;6.37;57.84;100584.34;5074236;28;20060;-75
2021/12/01 09:41:03;;;;;;;9.43;5.97;;;;;;;6.45;56.87;100578.47;5042870;28;20621;-75
2021/12/01 09:43:32;;;;;;;8.73;6.20;;;;;;;6.47;57.35;100564.63;5074139;28;20048;-75
2021/12/01 09:46:04;;;;;;;10.30;5.97;;;;;;;6.38;58.34;100559.63;5073538;28;20056;-74
2021/12/01 09:48:33;;;;;;;16.00;6.13;;;;;;;6.78;58.27;100559.53;5073681;28;20044;-72
2021/12/01 09:51:14;;;;;;;10.63;6.10;;;;;;;6.86;56.46;100559.09;5074621;28;20048;-72
2021/12/01 09:53:44;;;;;;;9.43;6.88;;;;;;;6.92;55.49;100555.34;5056590;28;20048;-77
2021/12/01 09:56:12;;;;;;;13.15;7.00;;;;;;;6.95;56.84;100554.03;5023446;28;20056;-77
2021/12/01 09:58:42;;;;;;;10.50;6.20;;;;;;;7.21;55.93;100541.50;5039988;28;20067;-76
2021/12/01 10:01:14;;;;;;;8.93;6.82;;;;;;;6.78;54.62;100535.06;5039829;28;20044;-77
2021/12/01 10:03:44;;;;;;;10.88;6.50;;;;;;;7.04;54.41;100527.97;5074318;28;20487;-76
2021/12/01 10:06:18;;;;;;;10.23;6.05;;;;;;;6.99;54.56;100539.66;5074289;28;20488;-77
2021/12/01 10:08:55;;;;;;;13.45;6.32;;;;;;;7.39;54.31;100523.13;5073910;28;20076;-77
2021/12/01 10:11:32;;;;;;;10.57;6.93;;;;;;;7.08;53.32;100536.44;5074478;28;20045;-76
2021/12/01 10:14:03;;;;;;;8.27;5.63;;;;;;;6.68;53.67;100523.00;5074373;28;20044;-77
2021/12/01 10:16:37;;;;;;;8.77;6.28;;;;;;;6.96;55.10;100512.97;5074104;28;20048;-77
2021/12/01 10:19:08;;;;;;;8.90;5.85;;;;;;;7.25;53.66;100515.38;5073036;28;20060;-77
2021/12/01 10:21:47;;;;;;;8.93;6.30;;;;;;;7.35;52.75;100505.66;5046195;28;20056;-77
2021/12/01 10:24:19;;;;;;;17.10;6.80;;;;;;;7.35;53.09;100500.22;5070414;28;20048;-78
2021/12/01 10:26:57;;;;;;;10.48;6.70;;;;;;;7.36;52.55;100496.41;5072839;28;20067;-78
2021/12/01 10:29:40;;;;;;;10.55;6.45;;;;;;;7.59;53.58;100497.13;5073981;28;20063;-77
2021/12/01 10:32:08;;;;;;;10.23;6.57;;;;;;;7.39;53.76;100493.19;5073906;28;20041;-77
2021/12/01 10:34:40;;;;;;;10.07;6.45;;;;;;;7.63;53.58;100484.66;5073712;28;20108;-77
2021/12/01 10:37:11;;;;;;;10.20;6.38;;;;;;;7.85;53.04;100479.03;5074130;28;20395;-78
2021/12/01 10:40:04;;;;;;;9.13;5.95;;;;;;;8.11;53.14;100486.53;5039143;28;20369;-79
2021/12/01 10:42:32;;;;;;;7.85;5.97;;;;;;;8.25;51.94;100467.78;5039629;28;20044;-78
2021/12/01 10:45:07;;;;;;;9.48;6.10;;;;;;;8.13;52.22;100468.00;5039698;28;20059;-79
2021/12/01 10:47:39;;;;;;;;;;;;;;;8.79;51.18;100447.47;5039768;28;20056;-78
2021/12/01 10:50:14;;;;;;;7.95;5.80;;;;;;;8.54;49.74;100450.97;5038915;28;20279;-78
2021/12/01 10:53:04;;;;;;;7.32;5.70;;;;;;;8.32;51.52;100439.16;5039759;28;20036;-77
2021/12/01 10:55:34;;;;;;;12.23;4.85;;;;;;;8.25;50.12;100430.44;5021990;28;20372;-78
2021/12/01 10:58:06;;;;;;;8.27;5.05;;;;;;;8.32;51.54;100422.81;5038409;28;20416;-78
2021/12/01 11:00:43;;;;;;;8.13;5.55;;;;;;;8.43;50.74;100431.03;5039248;28;20048;-79
2021/12/01 11:03:14;;;;;;;7.93;4.75;;;;;;;8.47;50.11;100429.41;5022817;28;20056;-78
2021/12/01 11:05:48;;;;;;;7.90;5.28;;;;;;;8.41;50.54;100425.81;5035402;28;20052;-79
2021/12/01 11:08:22;;;;;;;9.98;5.45;;;;;;;8.58;50.35;100413.91;5038959;28;20052;-78
2021/12/01 11:10:55;;;;;;;8.43;5.22;;;;;;;8.45;49.66;100420.66;5039106;28;20111;-78
2021/12/01 11:13:24;;;;;;;6.00;4.85;;;;;;;8.21;50.62;100412.97;5038775;28;20057;-78
2021/12/01 11:15:56;;;;;;;8.02;5.40;;;;;;;8.46;50.58;100416.88;5021937;28;20048;-78
2021/12/01 11:18:49;;;;;;;7.93;5.50;;;;;;;8.70;50.48;100402.75;5025207;28;20050;-79
2021/12/01 11:21:24;;;;;;;9.32;5.60;;;;;;;8.60;49.98;100404.34;5039163;28;20048;-79
2021/12/01 11:24:01;;;;;;;9.82;6.18;;;;;;;8.76;51.92;100396.19;5026248;28;20048;-78
2021/12/01 11:26:31;;;;;;;7.82;5.95;;;;;;;8.67;50.58;100389.63;5018865;28;20052;-80
2021/12/01 11:29:08;;;;;;;8.10;6.32;;;;;;;8.77;51.06;100383.34;5031580;28;20071;-79
2021/12/01 11:31:43;;;;;;;6.32;5.65;;;;;;;8.77;50.32;100381.47;5037836;28;20395;-79
2021/12/01 11:34:18;;;;;;;7.72;5.25;;;;;;;8.83;51.04;100377.63;5047957;28;20048;-79
2021/12/01 11:36:52;;;;;;;7.93;5.95;;;;;;;8.81;51.25;100371.63;5021886;28;20056;-80
2021/12/01 11:39:26;;;;;;;7.13;5.45;;;;;;;8.55;51.96;100370.81;5038331;28;20499;-80
2021/12/01 11:41:55;;;;;;;7.78;5.88;;;;;;;8.70;51.56;100370.81;5021888;28;20044;-79